createdAt,value
2023-02-16T00:00:19.596Z,6.50
2023-02-16T00:02:47.017Z,6.50
2023-02-16T00:05:33.890Z,6.50
2023-02-16T00:08:01.804Z,6.50
2023-02-16T00:10:33.567Z,6.40
2023-02-16T00:13:19.821Z,6.40
2023-02-16T00:15:47.116Z,6.40
2023-02-16T00:18:21.347Z,6.40
2023-02-16T00:20:48.797Z,6.40
2023-02-16T00:23:15.712Z,6.40
2023-02-16T00:25:42.619Z,6.40
2023-02-16T00:28:15.135Z,6.40
2023-02-16T00:30:42.234Z,6.40
2023-02-16T00:33:20.009Z,6.30
2023-02-16T00:35:47.564Z,6.30
2023-02-16T00:38:14.500Z,6.30
2023-02-16T00:40:41.985Z,6.30
2023-02-16T00:43:25.308Z,6.30
2023-02-16T00:45:52.602Z,6.30
2023-02-16T00:48:19.617Z,6.30
2023-02-16T00:50:46.815Z,6.20
2023-02-16T00:53:14.242Z,6.20
2023-02-16T00:55:42.620Z,6.10
2023-02-16T00:58:33.873Z,6.20
2023-02-16T01:01:13.140Z,6.10
2023-02-16T01:03:40.561Z,6.10
2023-02-16T01:06:26.074Z,6.10
2023-02-16T01:09:12.535Z,6.10
2023-02-16T01:11:39.434Z,6.10
2023-02-16T01:14:06.408Z,6.10
2023-02-16T01:16:39.914Z,6.00
2023-02-16T01:19:07.242Z,6.10
2023-02-16T01:21:34.148Z,6.10
2023-02-16T01:24:01.034Z,6.10
2023-02-16T01:26:27.951Z,6.00
2023-02-16T01:28:54.867Z,5.90
2023-02-16T01:31:21.883Z,6.00
2023-02-16T01:33:48.971Z,6.00
2023-02-16T01:36:29.764Z,6.00
2023-02-16T01:38:56.733Z,6.00
2023-02-16T01:41:37.978Z,6.00
2023-02-16T01:44:09.837Z,5.90
2023-02-16T01:46:37.533Z,5.90
2023-02-16T01:49:04.592Z,5.80
2023-02-16T01:51:37.572Z,5.90
2023-02-16T01:54:27.861Z,6.00
2023-02-16T01:57:00.606Z,5.90
2023-02-16T01:59:48.747Z,5.90
2023-02-16T02:02:19.480Z,5.90
2023-02-16T02:05:10.787Z,5.90
2023-02-16T02:07:50.964Z,5.90
2023-02-16T02:10:26.170Z,5.80
2023-02-16T02:12:59.806Z,5.80
2023-02-16T02:15:28.201Z,5.80
2023-02-16T02:17:55.127Z,5.80
2023-02-16T02:20:54.390Z,5.90
2023-02-16T02:23:44.904Z,5.80
2023-02-16T02:26:57.060Z,5.90
2023-02-16T02:29:45.400Z,5.90
2023-02-16T02:32:44.743Z,5.90
2023-02-16T02:35:26.920Z,5.80
2023-02-16T02:38:09.055Z,5.80
2023-02-16T02:40:47.433Z,5.80
2023-02-16T02:43:29.781Z,5.90
2023-02-16T02:46:00.032Z,5.90
2023-02-16T02:48:31.795Z,5.90
2023-02-16T02:51:18.941Z,5.90
2023-02-16T02:54:26.058Z,5.90
2023-02-16T02:57:23.693Z,6.00
2023-02-16T03:00:14.147Z,6.00
2023-02-16T03:02:41.091Z,6.00
2023-02-16T03:05:08.390Z,6.00
2023-02-16T03:07:47.788Z,6.00
2023-02-16T03:10:45.517Z,6.00
2023-02-16T03:13:16.816Z,6.00
2023-02-16T03:15:44.672Z,6.00
2023-02-16T03:18:30.142Z,6.00
2023-02-16T03:21:15.766Z,6.00
2023-02-16T03:24:01.116Z,6.00
2023-02-16T03:26:46.850Z,6.00
2023-02-16T03:29:18.655Z,6.00
2023-02-16T03:31:45.674Z,6.10
2023-02-16T03:34:12.649Z,6.00
2023-02-16T03:36:41.297Z,6.10
2023-02-16T03:39:08.281Z,6.10
2023-02-16T03:41:40.176Z,6.10
2023-02-16T03:44:07.311Z,6.10
2023-02-16T03:46:34.271Z,6.10
2023-02-16T03:49:01.193Z,6.10
2023-02-16T03:51:28.651Z,6.20
2023-02-16T03:53:55.548Z,6.20
2023-02-16T03:56:22.467Z,6.20
2023-02-16T03:58:49.365Z,6.20
2023-02-16T04:01:16.300Z,6.30
2023-02-16T04:03:43.198Z,6.30
2023-02-16T04:06:10.228Z,6.30
2023-02-16T04:08:37.143Z,6.20
2023-02-16T04:11:24.052Z,6.20
2023-02-16T04:13:50.994Z,6.20
2023-02-16T04:16:18.010Z,6.20
2023-02-16T04:18:44.985Z,6.20
2023-02-16T04:21:11.903Z,6.20
2023-02-16T04:23:38.830Z,6.20
2023-02-16T04:26:05.797Z,6.20
2023-02-16T04:28:33.168Z,6.20
2023-02-16T04:31:00.141Z,6.10
2023-02-16T04:33:27.115Z,6.20
2023-02-16T04:35:54.044Z,6.20
2023-02-16T04:38:20.976Z,6.20
2023-02-16T04:40:48.026Z,6.20
2023-02-16T04:43:14.998Z,6.20
2023-02-16T06:02:32.004Z,6.30
2023-02-16T06:04:58.944Z,6.30
2023-02-16T06:07:25.851Z,6.30
2023-02-16T06:09:52.757Z,6.20
2023-02-16T06:12:19.696Z,6.20
2023-02-16T06:14:46.621Z,6.20
2023-02-16T06:17:13.518Z,6.20
2023-02-16T06:19:40.437Z,6.20
2023-02-16T06:22:07.365Z,6.20
2023-02-16T06:24:35.280Z,6.20
2023-02-16T06:27:02.621Z,6.20
2023-02-16T06:29:30.520Z,6.20
2023-02-16T06:31:57.638Z,6.20
2023-02-16T06:34:25.687Z,6.20
2023-02-16T06:36:52.598Z,6.20
2023-02-16T06:39:19.603Z,6.30
2023-02-16T06:41:46.546Z,6.30
2023-02-16T06:44:14.751Z,6.20
2023-02-16T06:46:42.977Z,6.20
2023-02-16T06:49:14.482Z,6.30
2023-02-16T06:51:41.481Z,6.30
2023-02-16T06:54:08.462Z,6.30
2023-02-16T06:56:37.797Z,6.30
2023-02-16T06:59:05.484Z,6.30
2023-02-16T07:01:33.023Z,6.30
2023-02-16T07:04:00.276Z,6.30
2023-02-16T07:06:28.442Z,6.30
2023-02-16T07:08:55.527Z,6.30
2023-02-16T07:11:22.773Z,6.30
2023-02-16T07:13:50.329Z,6.30
2023-02-16T07:16:17.549Z,6.20
2023-02-16T07:18:45.125Z,6.30
2023-02-16T07:21:12.127Z,6.30
2023-02-16T07:23:39.081Z,6.30
2023-02-16T07:26:07.432Z,6.30
2023-02-16T07:28:34.410Z,6.30
2023-02-16T07:31:12.424Z,6.30
2023-02-16T07:33:39.631Z,6.30
2023-02-16T07:36:07.391Z,6.30
2023-02-16T07:38:34.375Z,6.30
2023-02-16T07:41:02.120Z,6.30
2023-02-16T07:43:29.325Z,6.30
2023-02-16T07:45:56.731Z,6.30
2023-02-16T07:48:23.700Z,6.30
2023-02-16T07:50:50.639Z,6.40
2023-02-16T07:53:17.819Z,6.40
2023-02-16T07:55:45.799Z,6.40
2023-02-16T07:58:27.438Z,6.40
2023-02-16T08:01:08.145Z,6.50
2023-02-16T08:03:35.070Z,6.40
2023-02-16T08:06:03.171Z,6.40
2023-02-16T08:08:30.737Z,6.50
2023-02-16T08:10:57.701Z,6.50
2023-02-16T08:13:24.787Z,6.50
2023-02-16T08:15:51.735Z,6.50
2023-02-16T08:18:19.166Z,6.50
2023-02-16T08:21:02.712Z,6.50
2023-02-16T08:23:30.561Z,6.50
2023-02-16T08:26:10.951Z,6.50
2023-02-16T08:28:38.187Z,6.60
2023-02-16T08:31:06.331Z,6.50
2023-02-16T08:33:34.357Z,6.50
2023-02-16T08:36:01.906Z,6.50
2023-02-16T08:38:28.982Z,6.50
2023-02-16T08:40:56.098Z,6.60
2023-02-16T08:43:23.051Z,6.50
2023-02-16T08:45:50.054Z,6.60
2023-02-16T08:48:17.931Z,6.60
2023-02-16T08:50:54.046Z,6.50
2023-02-16T08:53:23.277Z,6.60
2023-02-16T08:55:57.789Z,6.60
2023-02-16T08:58:26.543Z,6.60
2023-02-16T09:00:53.543Z,6.60
2023-02-16T09:03:20.707Z,6.60
2023-02-16T09:05:52.878Z,6.60
2023-02-16T09:08:19.876Z,6.60
2023-02-16T09:10:46.834Z,6.60
2023-02-16T09:13:16.608Z,6.70
2023-02-16T09:15:44.145Z,6.70
2023-02-16T09:18:14.907Z,6.70
2023-02-16T09:20:45.550Z,6.70
2023-02-16T09:23:13.752Z,6.70
2023-02-16T09:25:41.608Z,6.70
2023-02-16T09:28:10.843Z,6.70
2023-02-16T09:30:38.526Z,6.70
2023-02-16T09:33:05.814Z,6.70
2023-02-16T09:35:33.270Z,6.70
2023-02-16T09:38:00.248Z,6.70
2023-02-16T09:40:27.306Z,6.70
2023-02-16T09:43:07.006Z,6.70
2023-02-16T09:45:39.932Z,6.70
2023-02-16T09:48:12.736Z,6.70
2023-02-16T09:50:53.404Z,6.70
2023-02-16T09:53:45.427Z,6.70
2023-02-16T09:56:20.219Z,6.80
2023-02-16T09:58:50.229Z,6.80
2023-02-16T10:01:23.855Z,6.80
2023-02-16T10:03:50.674Z,6.80
2023-02-16T10:06:48.903Z,6.90
2023-02-16T10:09:17.029Z,6.90
2023-02-16T10:11:51.645Z,6.90
2023-02-16T10:14:41.573Z,6.90
2023-02-16T10:17:20.675Z,7.00
2023-02-16T10:19:53.232Z,7.00
2023-02-16T10:22:50.294Z,6.90
2023-02-16T10:25:20.856Z,7.00
2023-02-16T10:27:50.479Z,7.00
2023-02-16T10:30:19.745Z,7.00
2023-02-16T10:32:54.149Z,7.00
2023-02-16T10:35:45.581Z,7.00
2023-02-16T10:38:27.100Z,7.10
2023-02-16T10:40:59.316Z,7.00
2023-02-16T10:43:58.222Z,7.10
2023-02-16T10:46:46.493Z,7.10
2023-02-16T10:49:14.905Z,7.20
2023-02-16T10:51:43.282Z,7.30
2023-02-16T10:54:14.971Z,7.30
2023-02-16T10:56:52.549Z,7.30
2023-02-16T10:59:25.776Z,7.40
2023-02-16T11:01:59.161Z,7.40
2023-02-16T11:04:40.756Z,7.50
2023-02-16T11:07:16.979Z,7.40
2023-02-16T11:09:51.327Z,7.50
2023-02-16T11:12:40.944Z,7.40
2023-02-16T11:15:14.050Z,7.50
2023-02-16T11:17:53.799Z,7.50
2023-02-16T11:20:53.427Z,7.60
2023-02-16T11:23:30.515Z,7.60
2023-02-16T11:26:06.819Z,7.60
2023-02-16T11:28:43.225Z,7.60
2023-02-16T11:31:17.887Z,7.70
2023-02-16T11:34:08.513Z,7.70
2023-02-16T11:36:45.705Z,7.80
2023-02-16T11:39:25.050Z,7.90
2023-02-16T11:42:01.765Z,7.80
2023-02-16T11:44:35.769Z,7.80
2023-02-16T11:47:33.023Z,7.80
2023-02-16T11:50:28.550Z,7.90
2023-02-16T11:53:14.924Z,7.90
2023-02-16T11:55:46.921Z,8.00
2023-02-16T11:58:26.697Z,8.10
2023-02-16T12:00:59.851Z,8.10
2023-02-16T12:04:10.278Z,8.10
2023-02-16T12:07:28.975Z,8.30
2023-02-16T12:10:17.017Z,8.40
2023-02-16T12:13:09.676Z,8.50
2023-02-16T12:15:42.857Z,8.40
2023-02-16T12:18:16.432Z,8.40
2023-02-16T12:20:59.493Z,8.40
2023-02-16T12:23:41.488Z,8.40
2023-02-16T12:26:46.783Z,8.40
2023-02-16T12:29:45.868Z,8.40
2023-02-16T12:32:40.406Z,8.50
2023-02-16T12:35:13.058Z,8.60
2023-02-16T12:37:45.004Z,8.60
2023-02-16T12:40:42.916Z,8.80
2023-02-16T12:43:28.542Z,8.70
2023-02-16T12:45:56.646Z,8.80
2023-02-16T12:48:59.559Z,8.80
2023-02-16T12:51:31.023Z,9.00
2023-02-16T12:53:59.342Z,9.10
2023-02-16T12:56:39.130Z,9.10
2023-02-16T12:59:29.978Z,9.10
2023-02-16T13:01:56.966Z,9.10
2023-02-16T13:04:44.070Z,9.30
2023-02-16T13:07:36.815Z,9.30
2023-02-16T13:10:22.016Z,9.40
2023-02-16T13:13:00.795Z,9.60
2023-02-16T13:15:34.475Z,9.70
2023-02-16T13:18:06.792Z,9.70
2023-02-16T13:20:33.738Z,9.80
2023-02-16T13:23:13.256Z,9.90
2023-02-16T13:26:24.554Z,10.00
2023-02-16T13:29:16.710Z,10.00
2023-02-16T13:32:23.765Z,10.00
2023-02-16T13:35:47.542Z,9.90
2023-02-16T13:38:51.937Z,9.90
2023-02-16T13:41:45.459Z,9.90
2023-02-16T13:44:19.592Z,10.00
2023-02-16T13:46:50.311Z,10.00
2023-02-16T13:49:26.514Z,10.00
2023-02-16T13:51:53.612Z,10.00
2023-02-16T13:54:43.797Z,10.00
2023-02-16T13:57:18.821Z,10.10
2023-02-16T13:59:56.654Z,10.10
2023-02-16T14:02:54.543Z,10.10
2023-02-16T14:05:34.267Z,10.10
2023-02-16T14:08:24.822Z,10.10
2023-02-16T14:10:55.252Z,10.00
2023-02-16T14:13:37.186Z,10.00
2023-02-16T14:16:13.427Z,10.10
2023-02-16T14:18:43.153Z,10.10
2023-02-16T14:21:36.724Z,10.00
2023-02-16T14:24:04.389Z,10.00
2023-02-16T14:26:32.017Z,10.00
2023-02-16T14:29:12.611Z,10.00
2023-02-16T14:32:23.989Z,10.00
2023-02-16T14:35:30.742Z,10.00
2023-02-16T14:38:17.786Z,10.00
2023-02-16T14:40:58.833Z,9.90
2023-02-16T14:43:44.281Z,9.90
2023-02-16T14:46:30.981Z,9.90
2023-02-16T14:49:35.524Z,9.80
2023-02-16T14:52:17.739Z,9.80
2023-02-16T14:55:23.573Z,9.80
2023-02-16T14:58:11.722Z,9.80
2023-02-16T15:00:48.849Z,9.80
2023-02-16T15:03:23.231Z,9.80
2023-02-16T15:06:04.962Z,9.70
2023-02-16T15:08:35.959Z,9.80
2023-02-16T15:11:16.441Z,9.70
2023-02-16T15:13:44.009Z,9.70
2023-02-16T15:16:15.452Z,9.70
2023-02-16T15:18:46.554Z,9.70
2023-02-16T15:21:19.753Z,9.70
2023-02-16T15:23:52.896Z,9.60
2023-02-16T15:26:26.064Z,9.60
2023-02-16T15:29:19.235Z,9.60
2023-02-16T15:31:46.892Z,9.60
2023-02-16T15:34:16.420Z,9.50
2023-02-16T15:36:44.818Z,9.40
2023-02-16T15:39:17.681Z,9.40
2023-02-16T15:41:45.980Z,9.40
2023-02-16T15:44:34.517Z,9.30
2023-02-16T15:47:15.032Z,9.30
2023-02-16T15:49:42.040Z,9.30
2023-02-16T15:52:17.036Z,9.20
2023-02-16T15:54:44.760Z,9.20
2023-02-16T15:57:22.928Z,9.20
2023-02-16T15:59:51.858Z,9.10
2023-02-16T16:02:32.027Z,9.10
2023-02-16T16:05:01.185Z,9.10
2023-02-16T16:07:40.680Z,9.10
2023-02-16T16:10:28.770Z,9.10
2023-02-16T16:13:01.063Z,9.10
2023-02-16T16:15:29.465Z,9.00
2023-02-16T16:17:59.924Z,9.00
2023-02-16T16:20:38.134Z,9.00
2023-02-16T16:23:15.487Z,9.00
2023-02-16T16:25:44.926Z,8.90
2023-02-16T16:28:35.859Z,8.90
2023-02-16T16:31:21.260Z,8.90
2023-02-16T16:34:09.472Z,8.90
2023-02-16T16:36:42.180Z,8.90
2023-02-16T16:39:20.086Z,8.80
2023-02-16T16:42:07.167Z,8.90
2023-02-16T16:44:38.897Z,8.80
2023-02-16T16:47:33.544Z,8.80
2023-02-16T16:50:05.574Z,8.80
2023-02-16T16:52:43.944Z,8.80
2023-02-16T16:55:27.382Z,8.80
2023-02-16T16:57:56.631Z,8.80
2023-02-16T17:00:25.171Z,8.80
2023-02-16T17:02:52.381Z,8.80
2023-02-16T17:05:22.320Z,8.80
2023-02-16T17:07:52.363Z,8.80
2023-02-16T17:10:20.801Z,8.80
2023-02-16T17:12:48.858Z,8.80
2023-02-16T17:15:28.877Z,8.80
2023-02-16T17:17:55.990Z,8.80
2023-02-16T17:20:22.941Z,8.80
2023-02-16T17:22:50.029Z,8.80
2023-02-16T17:25:17.392Z,8.80
2023-02-16T17:27:44.464Z,8.80
2023-02-16T17:30:12.218Z,8.80
2023-02-16T17:32:39.264Z,8.80
2023-02-16T17:35:06.859Z,8.80
2023-02-16T17:37:35.760Z,8.80
2023-02-16T17:40:11.459Z,8.80
2023-02-16T17:42:38.706Z,8.80
2023-02-16T17:45:07.498Z,8.80
2023-02-16T17:47:34.553Z,8.80
2023-02-16T17:50:01.947Z,8.80
2023-02-16T17:52:28.970Z,8.80
2023-02-16T17:54:56.171Z,8.80
2023-02-16T17:57:23.175Z,8.80
2023-02-16T17:59:50.212Z,8.80
2023-02-16T18:02:17.559Z,8.80
2023-02-16T18:04:44.736Z,8.80
2023-02-16T18:07:15.354Z,8.80
2023-02-16T18:09:42.561Z,8.90
2023-02-16T18:12:09.586Z,8.90
2023-02-16T18:14:37.030Z,8.90
2023-02-16T18:17:04.918Z,8.90
2023-02-16T18:19:32.306Z,8.90
2023-02-16T18:22:00.684Z,8.90
2023-02-16T18:24:27.930Z,8.90
2023-02-16T18:26:55.556Z,8.90
2023-02-16T18:29:22.803Z,8.90
2023-02-16T18:31:50.158Z,8.90
2023-02-16T18:34:17.743Z,8.90
2023-02-16T18:36:45.019Z,8.90
2023-02-16T18:39:12.122Z,8.90
2023-02-16T18:41:39.374Z,8.90
2023-02-16T18:44:07.120Z,8.90
2023-02-16T18:46:34.208Z,8.90
2023-02-16T18:49:01.863Z,9.00
2023-02-16T18:51:32.133Z,9.00
2023-02-16T18:53:59.327Z,9.00
2023-02-16T18:56:27.626Z,9.00
2023-02-16T18:58:55.002Z,9.00
2023-02-16T19:01:29.106Z,9.00
2023-02-16T19:03:56.401Z,9.00
2023-02-16T19:06:23.752Z,9.00
2023-02-16T19:08:51.499Z,9.00
2023-02-16T19:11:19.809Z,9.00
2023-02-16T19:13:47.735Z,9.00
2023-02-16T19:16:15.879Z,9.00
2023-02-16T19:18:42.871Z,9.10
2023-02-16T19:21:11.501Z,9.10
2023-02-16T19:23:38.528Z,9.00
2023-02-16T19:26:11.241Z,9.10
2023-02-16T19:28:39.699Z,9.10
2023-02-16T19:31:15.026Z,9.10
2023-02-16T19:33:42.102Z,9.10
2023-02-16T19:36:10.172Z,9.10
2023-02-16T19:38:37.751Z,9.10
2023-02-16T19:41:14.181Z,9.10
2023-02-16T19:43:42.412Z,9.10
2023-02-16T19:46:10.508Z,9.10
2023-02-16T19:48:37.861Z,9.10
2023-02-16T19:51:05.950Z,9.10
2023-02-16T19:53:33.594Z,9.20
2023-02-16T19:56:00.631Z,9.20
2023-02-16T19:58:27.586Z,9.10
2023-02-16T20:00:54.547Z,9.20
2023-02-16T20:03:21.517Z,9.20
2023-02-16T20:05:51.406Z,9.20
2023-02-16T20:08:18.996Z,9.20
2023-02-16T20:10:46.022Z,9.10
2023-02-16T20:13:12.956Z,9.20
2023-02-16T20:15:40.022Z,9.20
2023-02-16T20:18:08.476Z,9.20
2023-02-16T20:20:36.004Z,9.10
2023-02-16T20:23:03.575Z,9.20
2023-02-16T20:25:30.539Z,9.20
2023-02-16T20:27:58.254Z,9.20
2023-02-16T20:30:26.789Z,9.20
2023-02-16T20:32:53.924Z,9.20
2023-02-16T20:35:20.968Z,9.20
2023-02-16T20:37:47.953Z,9.20
2023-02-16T20:40:16.913Z,9.20
2023-02-16T20:42:44.060Z,9.20
2023-02-16T20:45:11.059Z,9.20
2023-02-16T20:47:38.034Z,9.20
2023-02-16T20:50:05.599Z,9.20
2023-02-16T20:52:35.971Z,9.20
2023-02-16T20:55:03.169Z,9.20
2023-02-16T20:57:30.185Z,9.20
2023-02-16T20:59:57.144Z,9.20
2023-02-16T21:02:24.278Z,9.20
2023-02-16T21:04:51.367Z,9.30
2023-02-16T21:07:18.882Z,9.20
2023-02-16T21:09:45.817Z,9.30
2023-02-16T21:12:12.982Z,9.20
2023-02-16T21:14:39.943Z,9.30
2023-02-16T21:17:07.040Z,9.20
2023-02-16T21:19:34.083Z,9.30
2023-02-16T21:22:01.016Z,9.30
2023-02-16T21:24:27.968Z,9.30
2023-02-16T21:26:54.935Z,9.30
2023-02-16T21:29:21.887Z,9.30
2023-02-16T21:31:49.168Z,9.30
2023-02-16T21:34:16.187Z,9.30
2023-02-16T21:36:43.176Z,9.30
2023-02-16T21:39:10.264Z,9.30
2023-02-16T21:41:37.336Z,9.30
2023-02-16T21:44:09.763Z,9.30
2023-02-16T21:46:38.922Z,9.30
2023-02-16T21:49:07.643Z,9.30
2023-02-16T21:51:37.190Z,9.30
2023-02-16T21:54:14.183Z,9.30
2023-02-16T21:56:46.054Z,9.30
2023-02-16T21:59:15.392Z,9.30
2023-02-16T22:01:51.345Z,9.30
2023-02-16T22:04:21.895Z,9.30
2023-02-16T22:06:49.876Z,9.30
2023-02-16T22:09:19.042Z,9.30
2023-02-16T22:11:46.666Z,9.30
2023-02-16T22:14:13.931Z,9.30
2023-02-16T22:16:41.200Z,9.30
2023-02-16T22:19:11.965Z,9.30
2023-02-16T22:21:40.399Z,9.30
2023-02-16T22:24:08.025Z,9.30
2023-02-16T22:26:36.055Z,9.30
2023-02-16T22:29:04.496Z,9.40
2023-02-16T22:31:31.918Z,9.40
2023-02-16T22:34:04.572Z,9.30
2023-02-16T22:36:31.929Z,9.40
2023-02-16T22:38:59.060Z,9.40
2023-02-16T22:41:26.204Z,9.40
2023-02-16T22:43:54.471Z,9.40
2023-02-16T22:46:22.456Z,9.40
2023-02-16T22:48:49.353Z,9.40
2023-02-16T22:51:17.076Z,9.40
2023-02-16T22:53:44.406Z,9.40
2023-02-16T22:56:13.701Z,9.40
2023-02-16T22:58:40.652Z,9.40
2023-02-16T23:01:12.489Z,9.40
2023-02-16T23:03:39.877Z,9.40
2023-02-16T23:06:17.966Z,9.40
2023-02-16T23:08:45.462Z,9.40
2023-02-16T23:11:12.644Z,9.40
2023-02-16T23:13:39.554Z,9.40
2023-02-16T23:16:17.996Z,9.40
2023-02-16T23:18:45.514Z,9.40
2023-02-16T23:21:21.205Z,9.40
2023-02-16T23:23:49.270Z,9.40
2023-02-16T23:26:16.748Z,9.40
2023-02-16T23:28:43.926Z,9.40
2023-02-16T23:31:12.727Z,9.40
2023-02-16T23:33:39.744Z,9.40
2023-02-16T23:36:07.547Z,9.40
2023-02-16T23:38:34.648Z,9.40
2023-02-16T23:41:03.916Z,9.40
2023-02-16T23:43:33.902Z,9.40
2023-02-16T23:46:01.978Z,9.40
2023-02-16T23:48:29.424Z,9.40
2023-02-16T23:50:56.785Z,9.40
2023-02-16T23:53:24.697Z,9.40
2023-02-16T23:56:03.396Z,9.40
2023-02-16T23:58:34.566Z,9.40
